(°C)
-5°
-5°
-6°
-6°
-6°
-7°
-7°
(°C)
-12°
-13°
-13°
-13°
-14°
-14°
-14°
O
O
O
O
O
O
O
(km/h)
23-37
23-38
23-39
22-38
22-36
22-35
21-35
(mm)
1
1
0
0
0
0
0
(%)
25
37
9
3
2
2
1

Élévation du soleil

/ -31.2°
sun-icon
UV 0
08:32
16:07
Dernier croissant (320°)
03:58
14:50

METAR pour 55.6°N 37.27°E (UUWW)

Heure Conditions Température/
Point de rosée
Vent Visibilité Météo Nuages Pression Changement Brut
VFR -5°C / -9°C 270º 12kt >10km Light Snow 1.00mm precipitation Vertical Visibility of 0ft. 990 No Significant change. Runway 24: Dry snow, 11-25% contamination with 5mm, friction coefficient 0.37. UUWW 011630Z 27006MPS 9999 -SN BKN049 M05/M09 Q0990 R24/420537 NOSIG
VFR -4°C / -8°C 260º 16kt >10km Light Snow 1.00mm precipitation Vertical Visibility of 0ft. 990 No Significant change. Runway 24: Dry snow, 11-25% contamination with 5mm, friction coefficient 0.37. UUWW 011600Z 26008MPS 9999 -SN BKN047 M04/M08 Q0990 R24/420537 NOSIG
VFR -4°C / -7°C 250º 12kt >10km Light Snow 1.00mm precipitation Vertical Visibility of 0ft. 990 No Significant change. Runway 24: Dry snow, 11-25% contamination with 5mm, friction coefficient 0.37. UUWW 011530Z 25006MPS 9999 -SN BKN044 M04/M07 Q0990 R24/420537 NOSIG
MVFR -4°C / -7°C 240º 10kt >10km Light Snow 1.00mm precipitation Vertical Visibility of 0ft. 990 Temporary: Visibility 1500. Showers Snow . Broken Clouds 1200ft. Cumulonimbus . Runway 19: Dry snow, 11-25% contamination with 5mm, friction coefficient 0.37. UUWW 011500Z 24005MPS 9999 -SN BKN016 M04/M07 Q0990 R19/420537 TEMPO 1500 SHSN BKN012CB
MVFR -4°C / -7°C 240º 10kt 9000m Light Snow 1.00mm precipitation Vertical Visibility of 0ft. 989 Temporary: Visibility 1500. Showers Snow . Broken Clouds 1200ft. Cumulonimbus . Runway 19: Dry snow, 11-25% contamination with 5mm, friction coefficient 0.37. UUWW 011430Z 24005MPS 9000 -SN BKN019 M04/M07 Q0989 R19/420537 TEMPO 1500 SHSN BKN012CB
MVFR -4°C / -7°C 240º 14kt 9000m Light Snow 1.00mm precipitation Vertical Visibility of 0ft. 989 Temporary: Visibility 1500. Showers Snow . Broken Clouds 1200ft. Cumulonimbus . Runway 24: Dry snow, 11-25% contamination with 5mm, friction coefficient 0.37. UUWW 011400Z 24007MPS 9000 -SN BKN030 M04/M07 Q0989 R24/420537 TEMPO 1500 SHSN BKN012CB
MVFR -4°C / -7°C 240º 14kt 8000m Light Snow 1.00mm precipitation Vertical Visibility of 0ft. 989 Temporary: Visibility 1500. Showers Snow . Broken Clouds 1200ft. Cumulonimbus . Runway 24: Dry snow, 11-25% contamination with 5mm, friction coefficient 0.37. UUWW 011330Z 24007MPS 8000 -SN BKN031 M04/M07 Q0989 R24/420537 TEMPO 1500 SHSN BKN012CB
MVFR -4°C / -7°C 240º 14kt >10km Light Snow 1.00mm precipitation Vertical Visibility of 0ft. 988 No Significant change. Runway 24: Dry snow, 11-25% contamination with 5mm, friction coefficient 0.37. UUWW 011300Z 24007MPS 9999 -SN BKN016 M04/M07 Q0988 R24/420537 NOSIG
MVFR -4°C / -7°C 240º 14kt >10km - Broken Clouds 1900ft 988 No Significant change. Runway 24: Dry snow, 11-25% contamination with 5mm, friction coefficient 0.37. UUWW 011230Z 24007MPS 9999 BKN019 M04/M07 Q0988 R24/420537 NOSIG
MVFR -4°C / -7°C 240º 14kt >10km Light Snow 1.00mm precipitation Vertical Visibility of 0ft. 988 No Significant change. Runway 24: Dry snow, 11-25% contamination with 5mm, friction coefficient 0.37. UUWW 011200Z 24007MPS 9999 -SN OVC021 M04/M07 Q0988 R24/420537 NOSIG
VFR -4°C / -7°C 250º 10kt 9000m Light Snow 1.00mm precipitation Vertical Visibility of 0ft. 987 Temporary: Visibility 1100. Showers Snow . Broken Clouds 1200ft. Cumulonimbus . Runway 19: Dry snow, 26-50% contamination with 5mm, friction coefficient 0.37. UUWW 011130Z 25005MPS 9000 -SN OVC034 M04/M07 Q0987 R19/450537 TEMPO 1100 SHSN BKN012CB
MVFR -3°C / -6°C 240º 10kt 9000m Light Snow 1.00mm precipitation Vertical Visibility of 0ft. 987 Temporary: Visibility 1100. Showers Snow . Broken Clouds 1200ft. Cumulonimbus . Runway 19: Dry snow, 26-50% contamination with 5mm, friction coefficient 0.37. UUWW 011100Z 24005MPS 9000 -SN OVC018 M03/M06 Q0987 R19/450537 TEMPO 1100 SHSN BKN012CB
MVFR -3°C / -6°C 230º 14kt 8000m Light Snow 1.00mm precipitation Vertical Visibility of 0ft. 987 Temporary: Visibility 1100. Showers Snow . Broken Clouds 1200ft. Cumulonimbus . Runway 19: Dry snow, 26-50% contamination with 5mm, friction coefficient 0.37. UUWW 011030Z 23007MPS 8000 -SN OVC017 M03/M06 Q0987 R19/450537 TEMPO 1100 SHSN BKN012CB
MVFR -3°C / -6°C 240º 12kt 8000m Light Snow 1.00mm precipitation Vertical Visibility of 0ft. 987 Temporary: Visibility 1100. Showers Snow . Broken Clouds 1200ft. Cumulonimbus . Runway 19: Dry snow, 26-50% contamination with 5mm, friction coefficient 0.37. UUWW 011000Z 24006MPS 8000 -SN OVC018 M03/M06 Q0987 R19/450537 TEMPO 1100 SHSN BKN012CB
MVFR -3°C / -6°C 230º 12kt 5000m Light Snow 1.00mm precipitation Vertical Visibility of 0ft. 987 Temporary: Visibility 1100. Showers Snow . Broken Clouds 1200ft. Cumulonimbus . Runway 19: Dry snow, 26-50% contamination with 5mm, friction coefficient 0.37. UUWW 010930Z 23006MPS 5000 -SN OVC017 M03/M06 Q0987 R19/450537 TEMPO 1100 SHSN BKN012CB
MVFR -3°C / -6°C 230º 10kt 4900m Light Snow 1.00mm precipitation Vertical Visibility of 0ft. 986 Temporary: Visibility 1100. Showers Snow . Broken Clouds 1200ft. Cumulonimbus . Runway 19: Dry snow, 26-50% contamination with 5mm, friction coefficient 0.37. UUWW 010900Z 23005MPS 4900 -SN OVC017 M03/M06 Q0986 R19/450537 TEMPO 1100 SHSN BKN012CB
IFR -3°C / -6°C 230º 14kt 2800m Light Snow 1.00mm precipitation Vertical Visibility of 0ft. 986 Temporary: Visibility 1100. Showers Snow . Broken Clouds 1200ft. Cumulonimbus . Runway 24: Dry snow, 26-50% contamination with 5mm, friction coefficient 0.35. UUWW 010830Z 23007MPS 2800 -SN BKN011 M03/M06 Q0986 R24/450535 TEMPO 1100 SHSN BKN012CB
IFR -3°C / -5°C 230º 12kt 2300m Light Snow 1.00mm precipitation Vertical Visibility of 0ft. 986 Temporary: Visibility 1100. Showers Snow . Broken Clouds 1200ft. Cumulonimbus . Runway 24: Dry snow, 26-50% contamination with 5mm, friction coefficient 0.35. UUWW 010800Z 23006MPS 2300 -SN BKN013 M03/M05 Q0986 R24/450535 TEMPO 1100 SHSN BKN012CB
IFR -3°C / -5°C 230º 12kt 2200m Light Snow 1.00mm precipitation Vertical Visibility of 0ft. 986 Temporary: Visibility 1100. Showers Snow . Broken Clouds 1200ft. Cumulonimbus . Runway 24: Dry snow, 26-50% contamination with 5mm, friction coefficient 0.35. UUWW 010730Z 23006MPS 2200 -SN BKN033 M03/M05 Q0986 R24/450535 TEMPO 1100 SHSN BKN012CB
IFR -4°C / -5°C 220º 12kt 2700m Light Snow 1.00mm precipitation Vertical Visibility of 0ft. 985 Temporary: Visibility 1100. Showers Snow . Broken Clouds 1200ft. Cumulonimbus . Runway 24: Dry snow, 26-50% contamination with 5mm, friction coefficient 0.35. UUWW 010700Z 22006MPS 2700 -SN BKN033 M04/M05 Q0985 R24/450535 TEMPO 1100 SHSN BKN012CB
IFR -4°C / -5°C 220º 10kt 2900m Light Snow 1.00mm precipitation Vertical Visibility of 0ft. 985 Temporary: Visibility 1100. Showers Snow . Broken Clouds 1200ft. Cumulonimbus . Runway 19: Dry snow, 51-100% contamination with 3mm, friction coefficient 0.37. UUWW 010630Z 22005MPS 2900 -SN BKN033 M04/M05 Q0985 R19/490337 TEMPO 1100 SHSN BKN012CB
IFR -4°C / -5°C 220º 10kt 2600m Light Snow 1.00mm precipitation Vertical Visibility of 0ft.
Broken Clouds 3200ft
985 Temporary: Visibility 1100. Showers Snow . Broken Clouds 1200ft. Cumulonimbus . Runway 19: Dry snow, 51-100% contamination with 3mm, friction coefficient 0.37. UUWW 010600Z 22005MPS 2600 -SN FEW013 BKN032 M04/M05 Q0985 R19/490337 TEMPO 1100 SHSN BKN012CB
IFR -4°C / -5°C 220º 10kt 2500m Light Snow 1.00mm precipitation Vertical Visibility of 0ft.
Broken Clouds 3200ft
984 Temporary: Visibility 1100. Showers Snow . Broken Clouds 1200ft. Cumulonimbus . Runway 19: Dry snow, 26-50% contamination with 5mm, friction coefficient 0.37. UUWW 010530Z 22005MPS 2500 -SN FEW011 BKN032 M04/M05 Q0984 R19/450537 TEMPO 1100 SHSN BKN012CB
IFR -3°C / -5°C 220º 10kt 2500m Light Snow 1.00mm precipitation Vertical Visibility of 0ft.
Broken Clouds 3200ft
984 No Significant change. Runway 19: Dry snow, 26-50% contamination with 5mm, friction coefficient 0.37. UUWW 010500Z 22005MPS 2500 -SN FEW013 BKN032 M03/M05 Q0984 R19/450537 NOSIG

VFR

-5°C / -9°C

[Plus]
Vent 270º 12kt
Visibilité >10km
Météo Light Snow 1.00mm precipitation
Nuages Vertical Visibility of 0ft.
Pression 990
Changement No Significant change. Runway 24: Dry snow, 11-25% contamination with 5mm, friction coefficient 0.37.
Brut UUWW 011630Z 27006MPS 9999 -SN BKN049 M05/M09 Q0990 R24/420537 NOSIG

VFR

-4°C / -8°C

[Plus]
Vent 260º 16kt
Visibilité >10km
Météo Light Snow 1.00mm precipitation
Nuages Vertical Visibility of 0ft.
Pression 990
Changement No Significant change. Runway 24: Dry snow, 11-25% contamination with 5mm, friction coefficient 0.37.
Brut UUWW 011600Z 26008MPS 9999 -SN BKN047 M04/M08 Q0990 R24/420537 NOSIG

VFR

-4°C / -7°C

[Plus]
Vent 250º 12kt
Visibilité >10km
Météo Light Snow 1.00mm precipitation
Nuages Vertical Visibility of 0ft.
Pression 990
Changement No Significant change. Runway 24: Dry snow, 11-25% contamination with 5mm, friction coefficient 0.37.
Brut UUWW 011530Z 25006MPS 9999 -SN BKN044 M04/M07 Q0990 R24/420537 NOSIG

MVFR

-4°C / -7°C

[Plus]
Vent 240º 10kt
Visibilité >10km
Météo Light Snow 1.00mm precipitation
Nuages Vertical Visibility of 0ft.
Pression 990
Changement Temporary: Visibility 1500. Showers Snow . Broken Clouds 1200ft. Cumulonimbus . Runway 19: Dry snow, 11-25% contamination with 5mm, friction coefficient 0.37.
Brut UUWW 011500Z 24005MPS 9999 -SN BKN016 M04/M07 Q0990 R19/420537 TEMPO 1500 SHSN BKN012CB

MVFR

-4°C / -7°C

[Plus]
Vent 240º 10kt
Visibilité 9000m
Météo Light Snow 1.00mm precipitation
Nuages Vertical Visibility of 0ft.
Pression 989
Changement Temporary: Visibility 1500. Showers Snow . Broken Clouds 1200ft. Cumulonimbus . Runway 19: Dry snow, 11-25% contamination with 5mm, friction coefficient 0.37.
Brut UUWW 011430Z 24005MPS 9000 -SN BKN019 M04/M07 Q0989 R19/420537 TEMPO 1500 SHSN BKN012CB

MVFR

-4°C / -7°C

[Plus]
Vent 240º 14kt
Visibilité 9000m
Météo Light Snow 1.00mm precipitation
Nuages Vertical Visibility of 0ft.
Pression 989
Changement Temporary: Visibility 1500. Showers Snow . Broken Clouds 1200ft. Cumulonimbus . Runway 24: Dry snow, 11-25% contamination with 5mm, friction coefficient 0.37.
Brut UUWW 011400Z 24007MPS 9000 -SN BKN030 M04/M07 Q0989 R24/420537 TEMPO 1500 SHSN BKN012CB

MVFR

-4°C / -7°C

[Plus]
Vent 240º 14kt
Visibilité 8000m
Météo Light Snow 1.00mm precipitation
Nuages Vertical Visibility of 0ft.
Pression 989
Changement Temporary: Visibility 1500. Showers Snow . Broken Clouds 1200ft. Cumulonimbus . Runway 24: Dry snow, 11-25% contamination with 5mm, friction coefficient 0.37.
Brut UUWW 011330Z 24007MPS 8000 -SN BKN031 M04/M07 Q0989 R24/420537 TEMPO 1500 SHSN BKN012CB

MVFR

-4°C / -7°C

[Plus]
Vent 240º 14kt
Visibilité >10km
Météo Light Snow 1.00mm precipitation
Nuages Vertical Visibility of 0ft.
Pression 988
Changement No Significant change. Runway 24: Dry snow, 11-25% contamination with 5mm, friction coefficient 0.37.
Brut UUWW 011300Z 24007MPS 9999 -SN BKN016 M04/M07 Q0988 R24/420537 NOSIG

MVFR

-4°C / -7°C

[Plus]
Vent 240º 14kt
Visibilité >10km
Météo -
Nuages Broken Clouds 1900ft
Pression 988
Changement No Significant change. Runway 24: Dry snow, 11-25% contamination with 5mm, friction coefficient 0.37.
Brut UUWW 011230Z 24007MPS 9999 BKN019 M04/M07 Q0988 R24/420537 NOSIG

MVFR

-4°C / -7°C

[Plus]
Vent 240º 14kt
Visibilité >10km
Météo Light Snow 1.00mm precipitation
Nuages Vertical Visibility of 0ft.
Pression 988
Changement No Significant change. Runway 24: Dry snow, 11-25% contamination with 5mm, friction coefficient 0.37.
Brut UUWW 011200Z 24007MPS 9999 -SN OVC021 M04/M07 Q0988 R24/420537 NOSIG

VFR

-4°C / -7°C

[Plus]
Vent 250º 10kt
Visibilité 9000m
Météo Light Snow 1.00mm precipitation
Nuages Vertical Visibility of 0ft.
Pression 987
Changement Temporary: Visibility 1100. Showers Snow . Broken Clouds 1200ft. Cumulonimbus . Runway 19: Dry snow, 26-50% contamination with 5mm, friction coefficient 0.37.
Brut UUWW 011130Z 25005MPS 9000 -SN OVC034 M04/M07 Q0987 R19/450537 TEMPO 1100 SHSN BKN012CB

MVFR

-3°C / -6°C

[Plus]
Vent 240º 10kt
Visibilité 9000m
Météo Light Snow 1.00mm precipitation
Nuages Vertical Visibility of 0ft.
Pression 987
Changement Temporary: Visibility 1100. Showers Snow . Broken Clouds 1200ft. Cumulonimbus . Runway 19: Dry snow, 26-50% contamination with 5mm, friction coefficient 0.37.
Brut UUWW 011100Z 24005MPS 9000 -SN OVC018 M03/M06 Q0987 R19/450537 TEMPO 1100 SHSN BKN012CB

MVFR

-3°C / -6°C

[Plus]
Vent 230º 14kt
Visibilité 8000m
Météo Light Snow 1.00mm precipitation
Nuages Vertical Visibility of 0ft.
Pression 987
Changement Temporary: Visibility 1100. Showers Snow . Broken Clouds 1200ft. Cumulonimbus . Runway 19: Dry snow, 26-50% contamination with 5mm, friction coefficient 0.37.
Brut UUWW 011030Z 23007MPS 8000 -SN OVC017 M03/M06 Q0987 R19/450537 TEMPO 1100 SHSN BKN012CB

MVFR

-3°C / -6°C

[Plus]
Vent 240º 12kt
Visibilité 8000m
Météo Light Snow 1.00mm precipitation
Nuages Vertical Visibility of 0ft.
Pression 987
Changement Temporary: Visibility 1100. Showers Snow . Broken Clouds 1200ft. Cumulonimbus . Runway 19: Dry snow, 26-50% contamination with 5mm, friction coefficient 0.37.
Brut UUWW 011000Z 24006MPS 8000 -SN OVC018 M03/M06 Q0987 R19/450537 TEMPO 1100 SHSN BKN012CB

MVFR

-3°C / -6°C

[Plus]
Vent 230º 12kt
Visibilité 5000m
Météo Light Snow 1.00mm precipitation
Nuages Vertical Visibility of 0ft.
Pression 987
Changement Temporary: Visibility 1100. Showers Snow . Broken Clouds 1200ft. Cumulonimbus . Runway 19: Dry snow, 26-50% contamination with 5mm, friction coefficient 0.37.
Brut UUWW 010930Z 23006MPS 5000 -SN OVC017 M03/M06 Q0987 R19/450537 TEMPO 1100 SHSN BKN012CB

MVFR

-3°C / -6°C

[Plus]
Vent 230º 10kt
Visibilité 4900m
Météo Light Snow 1.00mm precipitation
Nuages Vertical Visibility of 0ft.
Pression 986
Changement Temporary: Visibility 1100. Showers Snow . Broken Clouds 1200ft. Cumulonimbus . Runway 19: Dry snow, 26-50% contamination with 5mm, friction coefficient 0.37.
Brut UUWW 010900Z 23005MPS 4900 -SN OVC017 M03/M06 Q0986 R19/450537 TEMPO 1100 SHSN BKN012CB

IFR

-3°C / -6°C

[Plus]
Vent 230º 14kt
Visibilité 2800m
Météo Light Snow 1.00mm precipitation
Nuages Vertical Visibility of 0ft.
Pression 986
Changement Temporary: Visibility 1100. Showers Snow . Broken Clouds 1200ft. Cumulonimbus . Runway 24: Dry snow, 26-50% contamination with 5mm, friction coefficient 0.35.
Brut UUWW 010830Z 23007MPS 2800 -SN BKN011 M03/M06 Q0986 R24/450535 TEMPO 1100 SHSN BKN012CB

IFR

-3°C / -5°C

[Plus]
Vent 230º 12kt
Visibilité 2300m
Météo Light Snow 1.00mm precipitation
Nuages Vertical Visibility of 0ft.
Pression 986
Changement Temporary: Visibility 1100. Showers Snow . Broken Clouds 1200ft. Cumulonimbus . Runway 24: Dry snow, 26-50% contamination with 5mm, friction coefficient 0.35.
Brut UUWW 010800Z 23006MPS 2300 -SN BKN013 M03/M05 Q0986 R24/450535 TEMPO 1100 SHSN BKN012CB

IFR

-3°C / -5°C

[Plus]
Vent 230º 12kt
Visibilité 2200m
Météo Light Snow 1.00mm precipitation
Nuages Vertical Visibility of 0ft.
Pression 986
Changement Temporary: Visibility 1100. Showers Snow . Broken Clouds 1200ft. Cumulonimbus . Runway 24: Dry snow, 26-50% contamination with 5mm, friction coefficient 0.35.
Brut UUWW 010730Z 23006MPS 2200 -SN BKN033 M03/M05 Q0986 R24/450535 TEMPO 1100 SHSN BKN012CB

IFR

-4°C / -5°C

[Plus]
Vent 220º 12kt
Visibilité 2700m
Météo Light Snow 1.00mm precipitation
Nuages Vertical Visibility of 0ft.
Pression 985
Changement Temporary: Visibility 1100. Showers Snow . Broken Clouds 1200ft. Cumulonimbus . Runway 24: Dry snow, 26-50% contamination with 5mm, friction coefficient 0.35.
Brut UUWW 010700Z 22006MPS 2700 -SN BKN033 M04/M05 Q0985 R24/450535 TEMPO 1100 SHSN BKN012CB

IFR

-4°C / -5°C

[Plus]
Vent 220º 10kt
Visibilité 2900m
Météo Light Snow 1.00mm precipitation
Nuages Vertical Visibility of 0ft.
Pression 985
Changement Temporary: Visibility 1100. Showers Snow . Broken Clouds 1200ft. Cumulonimbus . Runway 19: Dry snow, 51-100% contamination with 3mm, friction coefficient 0.37.
Brut UUWW 010630Z 22005MPS 2900 -SN BKN033 M04/M05 Q0985 R19/490337 TEMPO 1100 SHSN BKN012CB

IFR

-4°C / -5°C

[Plus]
Vent 220º 10kt
Visibilité 2600m
Météo Light Snow 1.00mm precipitation
Nuages Vertical Visibility of 0ft.
Broken Clouds 3200ft
Pression 985
Changement Temporary: Visibility 1100. Showers Snow . Broken Clouds 1200ft. Cumulonimbus . Runway 19: Dry snow, 51-100% contamination with 3mm, friction coefficient 0.37.
Brut UUWW 010600Z 22005MPS 2600 -SN FEW013 BKN032 M04/M05 Q0985 R19/490337 TEMPO 1100 SHSN BKN012CB

IFR

-4°C / -5°C

[Plus]
Vent 220º 10kt
Visibilité 2500m
Météo Light Snow 1.00mm precipitation
Nuages Vertical Visibility of 0ft.
Broken Clouds 3200ft
Pression 984
Changement Temporary: Visibility 1100. Showers Snow . Broken Clouds 1200ft. Cumulonimbus . Runway 19: Dry snow, 26-50% contamination with 5mm, friction coefficient 0.37.
Brut UUWW 010530Z 22005MPS 2500 -SN FEW011 BKN032 M04/M05 Q0984 R19/450537 TEMPO 1100 SHSN BKN012CB

IFR

-3°C / -5°C

[Plus]
Vent 220º 10kt
Visibilité 2500m
Météo Light Snow 1.00mm precipitation
Nuages Vertical Visibility of 0ft.
Broken Clouds 3200ft
Pression 984
Changement No Significant change. Runway 19: Dry snow, 26-50% contamination with 5mm, friction coefficient 0.37.
Brut UUWW 010500Z 22005MPS 2500 -SN FEW013 BKN032 M03/M05 Q0984 R19/450537 NOSIG

TAF pour 55.6°N 37.27°E (UUWW)

From till


Maximum Temperature -2ºC on . Minimum Temperature -9ºC on .
From till Wind 250º 14kt. Visibility 6000m. Light Snow . Broken Clouds 1600ft.
Temporarly from till Wind 270º 16kt. Gust 29kt. Visibility 901.230m. Heavy Showers Snow blowing Snow . Broken Clouds 500ft. Broken Clouds 1600ft.
Becoming from till Wind 190º 12kt. Visibility 6000m. Light Snow . Overcast 700ft.
Temporarly from till Wind 160º 16kt. Gust 25kt. Visibility 1200m. Showers Snow . Broken Clouds 500ft. Broken Clouds 1200ft.
With 40% probability, Temporarly from till Light freezing Rain . Overcast 300ft.

Brut: TAF UUWW 011358Z 0115/0215 25007MPS 6000 -SN BKN016 TXM02/0215Z TNM09/0202Z TEMPO 0115/0118 27008G15MPS 0900 +SHSN BLSN BKN005 BKN016CB BECMG 0206/0209 19006MPS OVC007 TEMPO 0210/0215 16008G13MPS 1200 SHSN BKN005 BKN012CB PROB40 TEMPO 0212/0215 -FZRA OVC003

Les images satellites et les pluies actuelles pour 55.6°N 37.27°E

Le marqueur est placé sur 55.6°N 37.27°E. [Plus]

L'image satellite en temps réel combine la lumière visible pendant la journée et le rayonnement infrarouge pendant la nuit. La nuit, l'image n'est pas sombre car le rayonnement infrarouge permet de détecter les différences de température. Malheureusement, les nuages bas et le brouillard sont difficiles à distinguer des températures au sol et peuvent donc être presque invisibles pendant la nuit. Les images des satellites Météosat pour l'Europe sont mises à jour en temps réel toutes les 5 minutes. Les images GOES-16/GOES-17 (Amérique du Nord et du Sud) et Himawari (Asie) sont mises à jour toutes les 10 minutes.

Copyright 2021 EUMETSAT / meteoblue. / Copyright 2021 meteoblue

Radar et prévision de précipitation à court terme pour 55.6°N 37.27°E

Bruine
Légère
Modéré
Fort
Très fort
Grêle

Le marqueur est placé sur 55.6°N 37.27°E. Cette animation montre le Radar des précipitations pour les dernières heures, ainsi qu'une 1h prévision. La bruine ou les légères chutes de neiges peuvent ne pas être détectées par le radar. L'intensité des précipitations est visible avec un code couleur allant du bleu clair au violet foncé et orange.